| time (UTC) | temp F | wind direction | speed MPH | gust MPH | rain 1hr in | rain 24hr in | rain mn in | humidity % | barometer mb |
| 20260901200002 | 81 | 206 | 5.0 | 14.0 | 0.00 | 0.07 | 0.00 | 43 | 1023.1 |
| 20260901194501 | 80 | 269 | 6.0 | 13.0 | 0.00 | 0.07 | 0.00 | 45 | 1023.3 |
| 20260901193000 | 80 | 261 | 8.0 | 16.0 | 0.00 | 0.07 | 0.00 | 46 | 1023.5 |
| 20260901191501 | 80 | 273 | 7.0 | 12.0 | 0.00 | 0.07 | 0.00 | 46 | 1023.6 |
| 20260901190003 | 79 | 291 | 7.0 | 12.0 | 0.00 | 0.07 | 0.00 | 47 | 1023.7 |
| 20260901184501 | 79 | 269 | 7.0 | 14.0 | 0.00 | 0.07 | 0.00 | 45 | 1023.9 |
| 20260901183001 | 78 | 271 | 6.0 | 12.0 | 0.00 | 0.07 | 0.00 | 46 | 1024.0 |
| 20260901174501 | 76 | 282 | 5.0 | 9.0 | 0.00 | 0.07 | 0.00 | 50 | 1024.2 |
| 20260901173001 | 76 | 305 | 5.0 | 9.0 | 0.00 | 0.07 | 0.00 | 50 | 1024.3 |
| 20260901171500 | 76 | 309 | 3.0 | 5.0 | 0.00 | 0.07 | 0.00 | 50 | 1024.2 |
| 20260901170003 | 75 | 286 | 2.0 | 4.0 | 0.00 | 0.07 | 0.00 | 52 | 1024.2 |
| 20260901164501 | 74 | 329 | 1.0 | 3.0 | 0.00 | 0.07 | 0.00 | 56 | 1024.2 |
| 20260901163000 | 73 | 350 | 2.0 | 3.0 | 0.00 | 0.07 | 0.00 | 61 | 1024.2 |
| 20260901161500 | 71 | 360 | 4.0 | 7.0 | 0.00 | 0.07 | 0.00 | 63 | 1024.2 |
| 20260901160002 | 70 | 71 | 4.0 | 7.0 | 0.00 | 0.07 | 0.00 | 65 | 1024.1 |
| 20260901154501 | 69 | 87 | 3.0 | 7.0 | 0.00 | 0.07 | 0.00 | 68 | 1024.2 |
| 20260901153001 | 68 | 68 | 4.0 | 7.0 | 0.00 | 0.07 | 0.00 | 70 | 1024.1 |
| 20260901151501 | 68 | 59 | 3.0 | 5.0 | 0.00 | 0.07 | 0.00 | 70 | 1024.1 |
| 20260901150002 | 67 | 84 | 6.0 | 9.0 | 0.00 | 0.07 | 0.00 | 73 | 1024.1 |
| 20260901144501 | 66 | 113 | 7.0 | 11.0 | 0.00 | 0.07 | 0.00 | 75 | 1024.1 |
| 20260901143002 | 65 | 76 | 7.0 | 11.0 | 0.00 | 0.07 | 0.00 | 77 | 1024.1 |
| 20260901141501 | 64 | 100 | 8.0 | 13.0 | 0.00 | 0.07 | 0.00 | 78 | 1023.7 |
| 20260901134501 | 64 | 81 | 11.0 | 16.0 | 0.00 | 0.07 | 0.00 | 79 | 1023.6 |
| 20260901133001 | 63 | 116 | 8.0 | 14.0 | 0.00 | 0.07 | 0.00 | 79 | 1023.5 |
| 20260901131459 | 63 | 121 | 7.0 | 10.0 | 0.00 | 0.07 | 0.00 | 80 | 1023.4 |
| 20260901130000 | 63 | 90 | 6.0 | 10.0 | 0.00 | 0.07 | 0.00 | 79 | 1023.4 |
| 20260901124459 | 63 | 129 | 7.0 | 14.0 | 0.00 | 0.07 | 0.00 | 80 | 1023.2 |
| 20260901123000 | 63 | 67 | 7.0 | 10.0 | 0.00 | 0.07 | 0.00 | 81 | 1022.9 |
| 20260901121459 | 63 | 98 | 9.0 | 14.0 | 0.00 | 0.07 | 0.00 | 80 | 1022.7 |
| 20260901115959 | 63 | 100 | 9.0 | 13.0 | 0.00 | 0.07 | 0.00 | 80 | 1022.6 |
| 20260901113000 | 63 | 113 | 5.0 | 8.0 | 0.00 | 0.07 | 0.00 | 80 | 1022.9 |
| 20260901111459 | 64 | 114 | 4.0 | 8.0 | 0.00 | 0.07 | 0.00 | 79 | 1022.9 |
| 20260901110000 | 64 | 159 | 0.0 | 2.0 | 0.00 | 0.07 | 0.00 | 79 | 1023.0 |
| 20260901104459 | 64 | 15 | 1.0 | 3.0 | 0.00 | 0.07 | 0.00 | 76 | 1022.9 |
| 20260901103000 | 64 | 281 | 4.0 | 9.0 | 0.00 | 0.07 | 0.00 | 77 | 1022.9 |
| 20260901101459 | 64 | 107 | 9.0 | 16.0 | 0.00 | 0.07 | 0.00 | 78 | 1022.9 |
| 20260901094459 | 64 | 74 | 10.0 | 14.0 | 0.00 | 0.07 | 0.00 | 76 | 1022.9 |
| 20260901092959 | 64 | 99 | 10.0 | 15.0 | 0.00 | 0.07 | 0.00 | 76 | 1022.9 |
| 20260901091500 | 64 | 109 | 9.0 | 14.0 | 0.00 | 0.07 | 0.00 | 77 | 1023.0 |
| 20260901090002 | 64 | 121 | 8.0 | 11.0 | 0.00 | 0.07 | 0.00 | 77 | 1023.1 |
| 20260901084501 | 64 | 119 | 9.0 | 12.0 | 0.00 | 0.07 | 0.00 | 77 | 1023.4 |
| 20260901081458 | 64 | 108 | 5.0 | 8.0 | 0.00 | 0.07 | 0.00 | 78 | 1023.7 |
| 20260901075959 | 64 | 121 | 7.0 | 9.0 | 0.00 | 0.07 | 0.00 | 79 | 1023.7 |
| 20260901074459 | 64 | 98 | 9.0 | 13.0 | 0.00 | 0.07 | 0.00 | 79 | 1024.2 |
| 20260901072959 | 65 | 67 | 9.0 | 14.0 | 0.00 | 0.07 | 0.00 | 77 | 1024.4 |
| 20260901071459 | 67 | 69 | 10.0 | 16.0 | 0.00 | 0.07 | 0.00 | 71 | 1024.4 |
| 20260901070004 | 66 | 153 | 10.0 | 15.0 | 0.00 | 0.07 | 0.00 | 72 | 1023.7 |
| 20260901064502 | 66 | 84 | 11.0 | 19.0 | 0.00 | 0.07 | 0.00 | 71 | 1022.9 |
| 20260901063002 | 66 | 61 | 15.0 | 27.0 | 0.00 | 0.07 | 0.00 | 68 | 1022.9 |
| 20260901061501 | 65 | 111 | 12.0 | 19.0 | 0.00 | 0.07 | 0.00 | 70 | 1022.9 |
| 20260901060008 | 65 | 86 | 7.0 | 12.0 | 0.00 | 0.07 | 0.00 | 72 | 1022.9 |
| 20260901054502 | 65 | 75 | 8.0 | 13.0 | 0.00 | 0.07 | 0.07 | 71 | 1022.8 |
| 20260901053004 | 65 | 84 | 10.0 | 17.0 | 0.00 | 0.07 | 0.07 | 72 | 1022.9 |
| 20260901051502 | 64 | 80 | 8.0 | 11.0 | 0.00 | 0.07 | 0.07 | 74 | 1022.4 |
| 20260901050004 | 64 | 88 | 8.0 | 11.0 | 0.00 | 0.07 | 0.07 | 76 | 1022.4 |
| 20260901044505 | 64 | 28 | 4.0 | 9.0 | 0.00 | 0.07 | 0.07 | 76 | 1022.4 |
| 20260901043002 | 64 | 59 | 9.0 | 14.0 | 0.00 | 0.07 | 0.07 | 76 | 1022.3 |
| 20260901041502 | 64 | 58 | 9.0 | 12.0 | 0.00 | 0.07 | 0.07 | 77 | 1022.4 |
| 20260901034502 | 63 | 98 | 9.0 | 12.0 | 0.01 | 0.07 | 0.07 | 82 | 1022.7 |
| 20260901033001 | 63 | 115 | 13.0 | 19.0 | 0.02 | 0.07 | 0.07 | 84 | 1022.6 |
| 20260901030002 | 65 | 135 | 4.0 | 8.0 | 0.07 | 0.07 | 0.07 | 82 | 1023.5 |
| 20260901024501 | 65 | 119 | 4.0 | 7.0 | 0.06 | 0.06 | 0.06 | 79 | 1023.5 |
| 20260901023002 | 67 | 33 | 7.0 | 11.0 | 0.05 | 0.05 | 0.05 | 75 | 1023.7 |
| 20260901021501 | 70 | 142 | 9.0 | 15.0 | 0.00 | 0.00 | 0.00 | 61 | 1023.6 |
| 20260901020005 | 71 | 103 | 8.0 | 23.0 | 0.00 | 0.00 | 0.00 | 56 | 1023.3 |
| 20260901013002 | 72 | 90 | 10.0 | 14.0 | 0.00 | 0.00 | 0.00 | 59 | 1022.4 |
| 20260901011502 | 76 | 76 | 6.0 | 11.0 | 0.00 | 0.00 | 0.00 | 50 | 1022.3 |
| 20260901010003 | 77 | 355 | 9.0 | 21.0 | 0.00 | 0.00 | 0.00 | 43 | 1021.9 |
| 20260901004501 | 76 | 360 | 11.0 | 19.0 | 0.00 | 0.00 | 0.00 | 44 | 1021.7 |
| 20260901003002 | 74 | 293 | 5.0 | 17.0 | 0.00 | 0.00 | 0.00 | 49 | 1021.6 |
| 20260901001501 | 73 | 136 | 8.0 | 13.0 | 0.00 | 0.00 | 0.00 | 52 | 1021.8 |
| 20260901000001 | 72 | 78 | 11.0 | 17.0 | 0.00 | 0.00 | 0.00 | 50 | 1022.3 |
| 20260831234501 | 75 | 61 | 13.0 | 27.0 | 0.00 | 0.00 | 0.00 | 43 | 1022.8 |
| 20260831233003 | 81 | 26 | 10.0 | 18.0 | 0.00 | 0.00 | 0.00 | 40 | 1021.8 |
| 20260831231501 | 84 | 314 | 9.0 | 20.0 | 0.00 | 0.00 | 0.00 | 38 | 1021.2 |
| 20260831230001 | 84 | 325 | 10.0 | 22.0 | 0.00 | 0.00 | 0.00 | 37 | 1020.9 |
| 20260831224501 | 86 | 329 | 11.0 | 22.0 | 0.00 | 0.00 | 0.00 | 35 | 1020.5 |
| 20260831223001 | 86 | 334 | 10.0 | 20.0 | 0.00 | 0.00 | 0.00 | 35 | 1020.5 |
| 20260831221501 | 86 | 322 | 11.0 | 22.0 | 0.00 | 0.00 | 0.00 | 36 | 1020.5 |
| 20260831220001 | 86 | 283 | 9.0 | 16.0 | 0.00 | 0.00 | 0.00 | 35 | 1020.5 |
| 20260831214501 | 85 | 304 | 8.0 | 16.0 | 0.00 | 0.00 | 0.00 | 36 | 1020.6 |
| 20260831213001 | 85 | 45 | 8.0 | 14.0 | 0.00 | 0.00 | 0.00 | 34 | 1021.0 |
| 20260831211501 | 85 | 176 | 8.0 | 13.0 | 0.00 | 0.00 | 0.00 | 35 | 1021.1 |
| 20260831204502 | 85 | 289 | 11.0 | 21.0 | 0.00 | 0.00 | 0.00 | 35 | 1021.6 |
| 20260831203002 | 85 | 292 | 9.0 | 19.0 | 0.00 | 0.00 | 0.00 | 36 | 1021.8 |
| 20260831201501 | 84 | 259 | 8.0 | 15.0 | 0.00 | 0.00 | 0.00 | 37 | 1021.9 |